Daytona Beach International Airport
KDAB : now visible

Airfield :











YOU CAN JOIN US ON...

 
LOGIN :

Register | Disclaimer

   EN    FR    IT 

 









Legend :    VFR   Marginal VFR   IFR   Intensive IFR   Very Intensive IFR
Visi :
Ceiling :
>= 8 km
>= 3000ft
5 to 8 km
1000 to 3000 ft
1500m to 5 km
500 to 1000 ft
800 to 1500m
200 to 500 ft
< 800m
< 200 ft
Symbols :   Thunderstorms  Fog  Heavy snow  Heavy precipitations  Wind > 20 kt






- Airport Elevation : 34 ft
- IATA code : DAB


KDAB - Daytona Beach International

CURRENT METAR :
  • 120253Z 02017G27KT 5SM -RA BR OVC012 18/17 A3031 RMK AO2 PK WND 02027/0253 SLP264 P0000 60000 T01830172 51010

EXPIRED METARs :
  • 120153Z COR 01013G21KT 4SM -RA OVC012 17/17 A3031 RMK AO2 RAB26 SLP262 P0000 T01720167
  • 120053Z 01016G22KT 10SM FEW009 OVC012 18/17 A3029 RMK AO2 PK WND 01026/0007 SLP256 T01830167
  • 120034Z 01017G23KT 10SM SCT009 OVC012 18/17 A3028 RMK AO2 PK WND 01026/0007 T01780167

TAF KDAB
Valid from the 12 at 00:00 until the 13 at 00:00 UTC


112332Z 1200/1224 01012G20KT P6SM BKN010 OVC050
TEMPO 1200/1203 5SM BR OVC008
FM120600 02011KT P6SM BKN020 OVC050
FM121500 05015G23KT P6SM BKN015 BKN250
FM122000 04011KT P6SM BKN020 BKN250



MET'MAP, your aeronautical weather chart ! - Copyright ORBIFLY December 2007 - Disclaimer

ORBIFLY MET'MAP TEAM :

Programming & Development : Alexandra Zaïnal
Concept & original design : Baudouin d'Aumeries
Assistance for programming : Marc-Olivier Méhu
Technical & hardware support : Manuel Goepfert

Contact : metmap@orbifly.com




SOURCES & CREDITS :

   NOAA       Earth
Advisory